Time;durP1;ratioP1;P1;durP2;ratioP2;P2;SDS_P1;SDS_P2;PMS_P1;PMS_P2;Temp;Humidity;BMP_temperature;BMP_pressure;BME280_temperature;BME280_humidity;BME280_pressure;Samples;Min_cycle;Max_cycle;Signal;HPM_P1;HPM_P2
2023/01/05 00:01:03;;;;;;;46.07;5.67;;;;;;;-145.18;100.00;46726.81;6182886;23;20382;-71
2023/01/05 00:03:29;;;;;;;51.80;7.03;;;;;;;-145.18;100.00;46726.81;6181990;23;20108;-71
2023/01/05 00:05:59;;;;;;;47.73;7.50;;;;;;;-145.18;100.00;46726.81;6183059;23;20360;-71
2023/01/05 00:08:24;;;;;;;56.07;8.83;;;;;;;-145.18;100.00;46726.81;6181777;23;20435;-71
2023/01/05 00:24:30;;;;;;;61.87;7.63;;;;;;;-145.18;100.00;46722.91;6182840;23;20016;-71
2023/01/05 00:26:56;;;;;;;49.37;7.63;;;;;;;-145.18;100.00;46724.84;6182974;23;20124;-71
2023/01/05 00:29:21;;;;;;;50.27;6.70;;;;;;;-145.18;100.00;46724.84;6182753;23;20005;-71
2023/01/05 00:31:47;;;;;;;46.73;6.43;;;;;;;-145.18;100.00;46722.91;6182884;23;20076;-71
2023/01/05 00:34:12;;;;;;;45.73;6.80;;;;;;;-145.18;100.00;46722.91;6180929;23;20009;-71
2023/01/05 00:36:39;;;;;;;47.87;6.43;;;;;;;-145.18;100.00;46722.91;6182355;23;20009;-71
2023/01/05 00:39:05;;;;;;;42.77;5.77;;;;;;;-145.18;100.00;46722.91;6182667;23;20071;-71
2023/01/05 00:41:30;;;;;;;48.80;7.27;;;;;;;-145.18;100.00;46720.94;6182868;23;20009;-71
2023/01/05 00:43:56;;;;;;;53.33;7.50;;;;;;;-145.18;100.00;46720.94;6182790;23;20017;-71
2023/01/05 00:46:21;;;;;;;39.73;7.30;;;;;;;-145.18;100.00;46720.94;6181983;23;20084;-71
2023/01/05 00:48:46;;;;;;;44.07;6.17;;;;;;;-145.18;100.00;46717.03;6182768;23;20390;-71
2023/01/05 00:51:12;;;;;;;39.23;5.57;;;;;;;-145.18;100.00;46719.00;6182318;23;20044;-71
2023/01/05 00:53:37;;;;;;;45.17;6.10;;;;;;;-145.18;100.00;46724.84;6182656;23;20005;-71
2023/01/05 00:56:03;;;;;;;51.37;7.23;;;;;;;-145.18;100.00;46726.81;6180746;23;20088;-71
2023/01/05 00:58:28;;;;;;;38.37;5.63;;;;;;;-145.18;100.00;46724.84;6182737;23;20019;-71
2023/01/05 01:00:53;;;;;;;49.27;8.83;;;;;;;-145.18;100.00;46722.91;6182000;23;20013;-71
2023/01/05 01:03:19;;;;;;;45.57;7.93;;;;;;;-145.18;100.00;46720.94;6181723;23;20017;-71
2023/01/05 01:05:44;;;;;;;60.47;7.33;;;;;;;-145.18;100.00;46722.91;6182617;23;20016;-71
2023/01/05 01:08:09;;;;;;;44.93;6.17;;;;;;;-145.18;100.00;46724.84;6182296;23;20012;-71
2023/01/05 01:10:38;;;;;;;46.63;7.87;;;;;;;-145.18;100.00;46722.91;6182002;23;20457;-71
2023/01/05 01:13:03;;;;;;;48.50;7.00;;;;;;;-145.18;100.00;46722.91;6182256;23;20009;-71
2023/01/05 01:15:29;;;;;;;47.20;6.10;;;;;;;-145.18;100.00;46722.91;6182206;23;20470;-71
2023/01/05 01:17:54;;;;;;;42.20;6.03;;;;;;;-145.18;100.00;46722.91;6182316;23;20080;-71
2023/01/05 01:20:19;;;;;;;38.13;5.50;;;;;;;-145.18;100.00;46720.94;6182304;23;20001;-71
2023/01/05 01:22:45;;;;;;;34.03;6.30;;;;;;;-145.18;100.00;46724.84;6182351;23;20032;-71
2023/01/05 01:25:10;;;;;;;52.63;8.73;;;;;;;-145.18;100.00;46720.94;6181731;23;20390;-71
2023/01/05 01:27:35;;;;;;;46.80;6.87;;;;;;;-145.18;100.00;46717.03;6182241;23;20036;-71
2023/01/05 01:30:01;;;;;;;44.47;6.20;;;;;;;-145.18;100.00;46719.00;6182223;23;20014;-71
2023/01/05 01:32:26;;;;;;;53.07;9.37;;;;;;;-145.18;100.00;46722.91;6182113;23;20005;-71
2023/01/05 01:34:53;;;;;;;42.43;6.37;;;;;;;-145.18;100.00;46724.84;6182145;23;20324;-73
2023/01/05 01:37:19;;;;;;;47.67;6.63;;;;;;;-145.18;100.00;46719.00;6182060;23;20039;-71
2023/01/05 01:39:44;;;;;;;44.93;7.23;;;;;;;-145.18;100.00;46720.94;6182312;23;20980;-71
2023/01/05 01:42:15;;;;;;;47.07;5.87;;;;;;;-145.18;100.00;46724.84;6181803;23;20013;-71
2023/01/05 01:44:51;;;;;;;54.10;7.33;;;;;;;-145.18;100.00;46722.91;6182263;23;20012;-71
2023/01/05 01:47:39;;;;;;;41.28;7.63;;;;;;;-145.18;100.00;46720.94;6181863;23;20007;-71
2023/01/05 01:50:29;;;;;;;48.03;8.27;;;;;;;-145.18;100.00;46724.84;6165990;23;20004;-73
2023/01/05 01:53:00;;;;;;;53.80;7.70;;;;;;;-145.18;100.00;46722.91;6182115;23;20255;-71
2023/01/05 01:55:26;;;;;;;47.60;6.60;;;;;;;-145.18;100.00;46720.94;6182163;23;20301;-71
2023/01/05 01:57:52;;;;;;;44.37;6.97;;;;;;;-145.18;100.00;46722.91;6181345;23;20241;-73
2023/01/05 02:00:18;;;;;;;39.77;5.60;;;;;;;-145.18;100.00;46720.94;6181791;23;20224;-73
2023/01/05 02:02:47;;;;;;;52.10;9.70;;;;;;;-145.18;100.00;46717.03;6181704;23;20012;-72
2023/01/05 02:05:15;;;;;;;46.00;7.00;;;;;;;-145.18;100.00;46719.00;6181788;23;20009;-73
2023/01/05 02:07:46;;;;;;;51.53;5.43;;;;;;;-145.18;100.00;46724.84;6181518;23;20012;-73
2023/01/05 02:10:13;;;;;;;49.27;6.80;;;;;;;-145.18;100.00;46722.91;6181817;23;20001;-73
2023/01/05 02:13:03;;;;;;;54.43;7.73;;;;;;;-145.18;100.00;46724.84;6181978;23;20144;-72
2023/01/05 02:15:42;;;;;;;42.60;6.10;;;;;;;-145.18;100.00;46722.91;6181438;23;20261;-72
2023/01/05 02:18:30;;;;;;;51.87;6.40;;;;;;;-145.18;100.00;46722.91;6180328;23;20624;-73
2023/01/05 02:21:02;;;;;;;50.53;7.03;;;;;;;-145.18;100.00;46719.00;6181644;23;20258;-73
2023/01/05 02:24:06;;;;;;;55.47;7.03;;;;;;;-145.18;100.00;46720.94;6181994;23;20386;-73
2023/01/05 02:26:37;;;;;;;43.70;5.40;;;;;;;-145.18;100.00;46715.09;6138224;23;20041;-73
2023/01/05 02:29:37;;;;;;;49.07;7.13;;;;;;;-145.18;100.00;46717.03;6181680;23;20234;-73
2023/01/05 02:32:20;;;;;;;50.57;7.63;;;;;;;-145.18;100.00;46720.94;6181838;23;20549;-73
2023/01/05 02:34:52;;;;;;;49.80;6.50;;;;;;;-145.18;100.00;46719.00;6181632;23;20584;-73
2023/01/05 02:37:26;;;;;;;41.93;5.87;;;;;;;-145.18;100.00;46719.00;6181696;23;20235;-73
2023/01/05 02:40:07;;;;;;;65.00;7.60;;;;;;;-145.18;100.00;46717.03;6181683;23;20239;-73
2023/01/05 02:42:34;;;;;;;40.33;4.80;;;;;;;-145.18;100.00;46719.00;6181846;23;20249;-73
2023/01/05 02:45:05;;;;;;;36.03;5.23;;;;;;;-145.18;100.00;46720.94;6181747;23;20227;-73
2023/01/05 02:47:39;;;;;;;53.33;6.90;;;;;;;-145.18;100.00;46720.94;6181408;23;20231;-72
2023/01/05 02:50:23;;;;;;;46.03;6.53;;;;;;;-145.18;100.00;46717.03;6181494;23;20231;-73
2023/01/05 02:53:16;;;;;;;27.03;5.03;;;;;;;-145.18;100.00;46719.00;6181789;23;20289;-72
2023/01/05 02:55:50;;;;;;;45.50;6.67;;;;;;;-145.18;100.00;46715.09;6181388;23;20289;-73
2023/01/05 02:58:33;;;;;;;49.23;6.20;;;;;;;-145.18;100.00;46717.03;6181515;23;20261;-72
2023/01/05 03:03:44;;;;;;;46.05;5.55;;;;;;;-145.18;100.00;46719.00;6150174;23;20260;-70
2023/01/05 03:06:21;;;;;;;;;;;;;;;-145.18;100.00;46713.13;6152991;23;20045;-70
2023/01/05 03:08:51;;;;;;;42.35;5.05;;;;;;;-145.18;100.00;46717.03;6152123;23;19912;-71
2023/01/05 03:14:22;;;;;;;40.70;7.73;;;;;;;-145.18;100.00;46719.00;6153708;23;20297;-71
2023/01/05 03:16:50;;;;;;;40.90;7.77;;;;;;;-145.18;100.00;46719.00;6153319;23;20235;-70
2023/01/05 03:19:38;;;;;;;51.20;6.20;;;;;;;-145.18;100.00;46717.03;6154319;23;20224;-70
2023/01/05 03:37:20;;;;;;;32.97;4.63;;;;;;;-145.18;100.00;46717.03;6153363;23;20315;-71
2023/01/05 03:39:46;;;;;;;44.63;6.27;;;;;;;-145.18;100.00;46720.94;6153767;23;20307;-71
2023/01/05 03:42:13;;;;;;;50.57;5.80;;;;;;;-145.18;100.00;46722.91;6153884;23;20228;-71
2023/01/05 03:44:42;;;;;;;34.73;4.90;;;;;;;-145.18;100.00;46715.09;6154270;23;20006;-71
2023/01/05 03:47:08;;;;;;;47.13;6.93;;;;;;;-145.18;100.00;46719.00;6153597;23;20231;-71
2023/01/05 03:49:33;;;;;;;37.07;5.43;;;;;;;-145.18;100.00;46719.00;6154005;23;20666;-71
2023/01/05 03:51:59;;;;;;;45.10;5.70;;;;;;;-145.18;100.00;46719.00;6151847;23;20016;-71
2023/01/05 03:54:24;;;;;;;40.93;5.60;;;;;;;-145.18;100.00;46724.84;6153826;23;20013;-70
2023/01/05 03:56:49;;;;;;;38.87;6.10;;;;;;;-145.18;100.00;46720.94;6153524;23;20379;-71
2023/01/05 03:59:15;;;;;;;49.83;6.03;;;;;;;-145.18;100.00;46720.94;6153621;23;20085;-70
2023/01/05 04:01:40;;;;;;;35.10;5.63;;;;;;;-145.18;100.00;46717.03;6154779;23;20001;-71
2023/01/05 04:04:05;;;;;;;44.43;5.53;;;;;;;-145.18;100.00;46719.00;6156734;23;20017;-71
2023/01/05 04:06:31;;;;;;;33.97;4.87;;;;;;;-145.18;100.00;46717.03;6183941;23;20060;-71
2023/01/05 04:08:56;;;;;;;33.33;5.20;;;;;;;-145.18;100.00;46719.00;6183035;23;20311;-71
2023/01/05 04:11:23;;;;;;;46.87;5.83;;;;;;;-145.18;100.00;46719.00;6183462;23;20013;-70
2023/01/05 04:13:48;;;;;;;34.87;4.93;;;;;;;-145.18;100.00;46722.91;6183120;23;20355;-71
2023/01/05 04:16:14;;;;;;;47.53;5.70;;;;;;;-145.18;100.00;46720.94;6183612;23;20060;-71
2023/01/05 04:18:39;;;;;;;34.03;4.90;;;;;;;-145.18;100.00;46722.91;6183270;23;20056;-71
2023/01/05 04:21:05;;;;;;;44.30;8.30;;;;;;;-145.18;100.00;46719.00;6182712;23;20017;-71
2023/01/05 04:23:31;;;;;;;39.47;4.43;;;;;;;-145.18;100.00;46719.00;6183215;23;20009;-70
2023/01/05 04:25:57;;;;;;;49.73;6.30;;;;;;;-145.18;100.00;46720.94;6183036;23;20071;-70
2023/01/05 04:28:22;;;;;;;47.17;7.80;;;;;;;-145.18;100.00;46720.94;6156915;23;20009;-70
2023/01/05 04:30:50;;;;;;;32.67;4.37;;;;;;;-145.18;100.00;46720.94;6182988;23;20102;-71
2023/01/05 04:33:15;;;;;;;35.10;5.30;;;;;;;-145.18;100.00;46717.03;6183069;23;20362;-71
2023/01/05 04:35:41;;;;;;;42.77;4.93;;;;;;;-145.18;100.00;46719.00;6183295;23;20013;-71
2023/01/05 04:38:06;;;;;;;36.60;5.80;;;;;;;-145.18;100.00;46719.00;6182747;23;20005;-71
2023/01/05 04:40:32;;;;;;;45.37;5.80;;;;;;;-145.18;100.00;46722.91;6183353;23;20381;-70
2023/01/05 04:42:57;;;;;;;41.40;5.83;;;;;;;-145.18;100.00;46720.94;6182905;23;20076;-71
2023/01/05 04:45:22;;;;;;;47.43;6.07;;;;;;;-145.18;100.00;46719.00;6183261;23;20014;-71
2023/01/05 04:47:48;;;;;;;40.87;5.43;;;;;;;-145.18;100.00;46720.94;6182664;23;20005;-71
2023/01/05 04:50:13;;;;;;;25.13;4.37;;;;;;;-145.18;100.00;46717.03;6156976;23;20472;-70
2023/01/05 04:52:39;;;;;;;43.87;5.50;;;;;;;-145.18;100.00;46715.09;6183166;23;20036;-70
2023/01/05 04:55:05;;;;;;;39.50;5.80;;;;;;;-145.18;100.00;46717.03;6156328;23;20092;-70
2023/01/05 04:57:30;;;;;;;40.83;4.83;;;;;;;-145.18;100.00;46722.91;6183181;23;20329;-71
2023/01/05 04:59:55;;;;;;;36.13;6.50;;;;;;;-145.18;100.00;46720.94;6156329;23;20007;-70
2023/01/05 05:02:21;;;;;;;42.27;5.73;;;;;;;-145.18;100.00;46719.00;6176367;23;20097;-71
2023/01/05 05:04:47;;;;;;;39.07;6.13;;;;;;;-145.18;100.00;46717.03;6153110;23;20378;-71
2023/01/05 05:07:12;;;;;;;38.00;4.97;;;;;;;-145.18;100.00;46717.03;6152958;23;20067;-71
2023/01/05 05:09:38;;;;;;;36.60;6.57;;;;;;;-145.18;100.00;46719.00;6153368;23;20001;-71
2023/01/05 05:12:03;;;;;;;30.80;4.50;;;;;;;-145.18;100.00;46719.00;6152583;23;20009;-71
2023/01/05 05:14:29;;;;;;;37.33;4.23;;;;;;;-145.18;100.00;46717.03;6153296;23;20039;-71
2023/01/05 05:16:54;;;;;;;33.47;4.37;;;;;;;-145.18;100.00;46719.00;6151562;23;20080;-71
2023/01/05 05:19:19;;;;;;;41.47;5.90;;;;;;;-145.18;100.00;46720.94;6152419;23;20013;-71
2023/01/05 05:21:45;;;;;;;40.70;6.17;;;;;;;-145.18;100.00;46722.91;6153193;23;20449;-71
2023/01/05 05:24:11;;;;;;;39.07;5.17;;;;;;;-145.18;100.00;46715.09;6152805;23;20014;-71
2023/01/05 05:26:36;;;;;;;45.70;6.43;;;;;;;-145.18;100.00;46717.03;6153476;23;20017;-71
2023/01/05 05:29:01;;;;;;;43.73;6.30;;;;;;;-145.18;100.00;46720.94;6152432;23;20037;-71
2023/01/05 05:31:27;;;;;;;51.20;6.40;;;;;;;-145.18;100.00;46720.94;6153193;23;20013;-71
2023/01/05 05:33:52;;;;;;;37.90;5.83;;;;;;;-145.18;100.00;46722.91;6152287;23;20343;-72
2023/01/05 05:36:17;;;;;;;42.40;5.47;;;;;;;-145.18;100.00;46720.94;6152918;23;20010;-71
2023/01/05 05:38:43;;;;;;;39.53;4.93;;;;;;;-145.18;100.00;46720.94;6152706;23;20056;-71
2023/01/05 05:41:09;;;;;;;61.63;7.50;;;;;;;-145.18;100.00;46722.91;6151361;23;20120;-71
2023/01/05 05:43:34;;;;;;;49.17;7.73;;;;;;;-145.18;100.00;46719.00;6151203;23;20002;-71
2023/01/05 05:46:00;;;;;;;49.23;6.73;;;;;;;-145.18;100.00;46724.84;6152647;23;20017;-71
2023/01/05 05:48:26;;;;;;;41.63;6.20;;;;;;;-145.18;100.00;46720.94;6152481;23;20020;-71
2023/01/05 05:50:51;;;;;;;43.43;5.90;;;;;;;-145.18;100.00;46719.00;6153057;23;20048;-71
2023/01/05 05:53:16;;;;;;;42.20;6.17;;;;;;;-145.18;100.00;46724.84;6151032;23;20020;-71
2023/01/05 05:55:42;;;;;;;39.37;5.67;;;;;;;-145.18;100.00;46719.00;6151322;23;20017;-71
2023/01/05 05:58:08;;;;;;;48.33;5.97;;;;;;;-145.18;100.00;46720.94;6152105;23;20084;-71
2023/01/05 06:00:33;;;;;;;38.23;6.87;;;;;;;-145.18;100.00;46722.91;6151464;23;20013;-71
2023/01/05 06:02:59;;;;;;;50.77;5.93;;;;;;;-145.18;100.00;46720.94;6155109;23;20017;-71
2023/01/05 06:05:24;;;;;;;38.80;6.17;;;;;;;-145.18;100.00;46720.94;6152681;23;20014;-71
2023/01/05 06:07:49;;;;;;;47.80;7.37;;;;;;;-145.18;100.00;46722.91;6152328;23;20013;-71
2023/01/05 06:10:15;;;;;;;36.97;4.73;;;;;;;-145.18;100.00;46720.94;6152565;23;20021;-71
2023/01/05 06:12:40;;;;;;;43.03;5.37;;;;;;;-145.18;100.00;46720.94;6152648;23;20006;-71
2023/01/05 06:15:06;;;;;;;44.27;5.77;;;;;;;-145.18;100.00;46720.94;6152424;23;20018;-71
2023/01/05 06:17:32;;;;;;;43.77;6.00;;;;;;;-145.18;100.00;46720.94;6150949;23;20016;-71
2023/01/05 06:19:57;;;;;;;47.33;5.87;;;;;;;-145.18;100.00;46719.00;6152456;23;20018;-71
2023/01/05 06:22:22;;;;;;;38.87;6.93;;;;;;;-145.18;100.00;46719.00;6152373;23;20033;-71
2023/01/05 06:24:48;;;;;;;40.23;5.50;;;;;;;-145.18;100.00;46724.84;6152359;23;20275;-71
2023/01/05 06:27:13;;;;;;;38.80;6.60;;;;;;;-145.18;100.00;46719.00;6152388;23;20014;-71
2023/01/05 06:29:39;;;;;;;40.77;6.13;;;;;;;-145.18;100.00;46717.03;6152594;23;20006;-71
2023/01/05 06:32:04;;;;;;;47.93;5.50;;;;;;;-145.18;100.00;46719.00;6152324;23;20431;-71
2023/01/05 06:34:30;;;;;;;57.60;5.93;;;;;;;-145.18;100.00;46724.84;6152493;23;20423;-71
2023/01/05 06:36:55;;;;;;;53.73;6.80;;;;;;;-145.18;100.00;46717.03;6152123;23;20037;-71
2023/01/05 06:39:21;;;;;;;59.40;6.50;;;;;;;-145.18;100.00;46722.91;6152464;23;20059;-71
2023/01/05 06:41:46;;;;;;;37.10;5.00;;;;;;;-145.18;100.00;46720.94;6152396;23;20009;-71
2023/01/05 06:44:11;;;;;;;41.53;6.73;;;;;;;-145.18;100.00;46720.94;6152143;23;20034;-71
2023/01/05 06:46:37;;;;;;;40.87;5.73;;;;;;;-145.18;100.00;46720.94;6152696;23;20010;-71
2023/01/05 06:49:02;;;;;;;44.27;6.83;;;;;;;-145.18;100.00;46722.91;6151915;23;20009;-71
2023/01/05 06:51:28;;;;;;;42.87;5.47;;;;;;;-145.18;100.00;46720.94;6152997;23;20016;-71
2023/01/05 06:53:53;;;;;;;49.60;6.50;;;;;;;-145.18;100.00;46719.00;6151710;23;20443;-71
2023/01/05 06:56:18;;;;;;;46.17;5.80;;;;;;;-145.18;100.00;46722.91;6151106;23;20117;-71
2023/01/05 06:58:44;;;;;;;60.73;6.73;;;;;;;-145.18;100.00;46724.84;6152153;23;20387;-71
2023/01/05 07:01:09;;;;;;;46.13;5.97;;;;;;;-145.18;100.00;46724.84;6151675;23;20040;-71
2023/01/05 07:03:34;;;;;;;51.87;5.10;;;;;;;-145.18;100.00;46726.81;6151802;23;20013;-71
2023/01/05 07:06:00;;;;;;;41.27;6.23;;;;;;;-145.18;100.00;46719.00;6151692;23;20063;-71
2023/01/05 07:08:25;;;;;;;36.53;4.63;;;;;;;-145.18;100.00;46722.91;6152576;23;20033;-71
2023/01/05 07:10:50;;;;;;;45.87;5.77;;;;;;;-145.18;100.00;46719.00;6152196;23;20355;-71
2023/01/05 07:13:16;;;;;;;43.17;5.93;;;;;;;-145.18;100.00;46726.81;6151559;23;20075;-71
2023/01/05 07:15:41;;;;;;;35.23;6.00;;;;;;;-145.18;100.00;46717.03;6150654;23;20017;-71
2023/01/05 07:18:07;;;;;;;37.33;4.93;;;;;;;-145.18;100.00;46726.81;6151649;23;20020;-71
2023/01/05 07:20:32;;;;;;;42.17;5.10;;;;;;;-145.18;100.00;46724.84;6151967;23;20014;-71
2023/01/05 07:22:58;;;;;;;49.57;6.43;;;;;;;-145.18;100.00;46722.91;6151707;23;20010;-71
2023/01/05 07:25:23;;;;;;;46.43;5.97;;;;;;;-145.18;100.00;46720.94;6152170;23;19998;-71
2023/01/05 07:27:51;;;;;;;50.23;5.90;;;;;;;-145.18;100.00;46722.91;6151370;23;20009;-71
2023/01/05 07:30:16;;;;;;;41.67;6.73;;;;;;;-145.18;100.00;46720.94;6151547;23;20435;-71
2023/01/05 07:32:42;;;;;;;40.90;6.63;;;;;;;-145.18;100.00;46720.94;6151992;23;20009;-71
2023/01/05 07:35:07;;;;;;;41.60;6.20;;;;;;;-145.18;100.00;46722.91;6149899;23;20028;-71
2023/01/05 07:37:33;;;;;;;46.20;5.27;;;;;;;-145.18;100.00;46720.94;6151281;23;20010;-71
2023/01/05 07:39:58;;;;;;;47.43;6.93;;;;;;;-145.18;100.00;46722.91;6149435;23;20009;-71
2023/01/05 07:42:24;;;;;;;40.73;5.40;;;;;;;-145.18;100.00;46722.91;6149439;23;20005;-71
2023/01/05 07:44:51;;;;;;;39.43;6.20;;;;;;;-145.18;100.00;46722.91;6151431;23;20009;-71
2023/01/05 07:47:16;;;;;;;53.10;6.43;;;;;;;-145.18;100.00;46724.84;6150580;23;20240;-71
2023/01/05 07:49:42;;;;;;;44.53;6.10;;;;;;;-145.18;100.00;46722.91;6149555;23;20028;-71
2023/01/05 07:52:07;;;;;;;42.83;6.50;;;;;;;-145.18;100.00;46724.84;6151456;23;20076;-71
2023/01/05 07:54:33;;;;;;;44.53;6.83;;;;;;;-145.18;100.00;46720.94;6152437;23;20443;-71
2023/01/05 07:56:58;;;;;;;36.47;4.80;;;;;;;-145.18;100.00;46724.84;6153600;23;20013;-71
2023/01/05 07:59:24;;;;;;;46.47;7.27;;;;;;;-145.18;100.00;46719.00;6154013;23;20040;-71
2023/01/05 08:01:49;;;;;;;40.27;6.53;;;;;;;-145.18;100.00;46722.91;6152037;23;20002;-71
2023/01/05 08:04:15;;;;;;;42.50;5.53;;;;;;;-145.18;100.00;46720.94;6153536;23;20017;-71
2023/01/05 08:06:40;;;;;;;40.13;6.77;;;;;;;-145.18;100.00;46724.84;6154041;23;20076;-71
2023/01/05 08:11:49;;;;;;;40.30;6.30;;;;;;;-145.18;100.00;46722.91;6153725;23;20390;-71
2023/01/05 08:14:15;;;;;;;38.47;5.90;;;;;;;-145.18;100.00;46722.91;6153683;23;20029;-71
2023/01/05 08:16:41;;;;;;;46.83;5.67;;;;;;;-145.18;100.00;46724.84;6152341;23;20010;-71
2023/01/05 08:19:08;;;;;;;36.73;5.80;;;;;;;-145.18;100.00;46724.84;6153376;23;20017;-71
2023/01/05 08:21:33;;;;;;;54.33;7.37;;;;;;;-145.18;100.00;46722.91;6153906;23;20013;-71
2023/01/05 08:23:59;;;;;;;52.00;6.50;;;;;;;-145.18;100.00;46722.91;6153324;23;20093;-71
2023/01/05 08:26:24;;;;;;;44.27;5.83;;;;;;;-145.18;100.00;46724.84;6153577;23;20012;-71
2023/01/05 08:28:51;;;;;;;39.83;6.07;;;;;;;-145.18;100.00;46722.91;6153504;23;20005;-71
2023/01/05 08:31:23;;;;;;;42.90;5.53;;;;;;;-145.18;100.00;46722.91;6127428;23;20001;-71
2023/01/05 08:33:48;;;;;;;51.30;6.93;;;;;;;-145.18;100.00;46726.81;6152810;23;20044;-71
2023/01/05 08:36:18;;;;;;;36.73;5.60;;;;;;;-145.18;100.00;46724.84;6153673;23;20013;-71
2023/01/05 08:38:47;;;;;;;53.97;6.80;;;;;;;-145.18;100.00;46726.81;6153695;23;20056;-71
2023/01/05 08:41:34;;;;;;;51.37;5.67;;;;;;;-145.18;100.00;46719.00;6153348;23;20232;-71
2023/01/05 08:44:01;;;;;;;52.33;6.80;;;;;;;-145.18;100.00;46720.94;6151483;23;20005;-71
2023/01/05 08:46:31;;;;;;;45.73;6.90;;;;;;;-145.18;100.00;46722.91;6153349;23;20025;-71
2023/01/05 08:48:59;;;;;;;43.10;6.23;;;;;;;-145.18;100.00;46719.00;6153349;23;20475;-71
2023/01/05 08:51:24;;;;;;;45.83;7.03;;;;;;;-145.18;100.00;46720.94;6153589;23;20040;-71
2023/01/05 08:53:50;;;;;;;46.33;7.43;;;;;;;-145.18;100.00;46722.91;6153064;23;20001;-71
2023/01/05 08:56:16;;;;;;;54.70;7.23;;;;;;;-145.18;100.00;46720.94;6153388;23;20005;-71
2023/01/05 08:58:42;;;;;;;42.63;6.90;;;;;;;-145.18;100.00;46724.84;6153241;23;20006;-71
2023/01/05 09:01:12;;;;;;;64.43;6.90;;;;;;;-145.18;100.00;46720.94;6153002;23;20258;-71
2023/01/05 09:03:38;;;;;;;50.70;6.13;;;;;;;-145.18;100.00;46720.94;6127114;23;20045;-71
2023/01/05 09:06:05;;;;;;;49.03;7.37;;;;;;;-145.18;100.00;46722.91;6153047;23;20012;-71
2023/01/05 09:08:32;;;;;;;40.10;4.90;;;;;;;-145.18;100.00;46719.00;6152894;23;20339;-71
2023/01/05 09:11:18;;;;;;;57.27;7.47;;;;;;;-145.18;100.00;46720.94;6153073;23;20502;-71
2023/01/05 09:13:49;;;;;;;45.43;6.03;;;;;;;-145.18;100.00;46720.94;6153641;23;20005;-71
2023/01/05 09:16:18;;;;;;;60.10;6.53;;;;;;;-145.18;100.00;46722.91;6153286;23;20038;-71
2023/01/05 09:18:43;;;;;;;55.17;8.53;;;;;;;-145.18;100.00;46722.91;6153457;23;20012;-71
2023/01/05 09:21:10;;;;;;;52.40;7.07;;;;;;;-145.18;100.00;46722.91;6152788;23;20324;-71
2023/01/05 09:23:36;;;;;;;57.23;7.67;;;;;;;-145.18;100.00;46724.84;6153132;23;20010;-71
2023/01/05 09:26:09;;;;;;;37.00;5.20;;;;;;;-145.18;100.00;46720.94;6152856;23;20013;-71
2023/01/05 09:28:35;;;;;;;62.70;7.97;;;;;;;-145.18;100.00;46724.84;6152937;23;20044;-71
2023/01/05 09:31:19;;;;;;;48.07;6.40;;;;;;;-145.18;100.00;46724.84;6151417;23;20014;-71
2023/01/05 09:33:45;;;;;;;44.30;6.70;;;;;;;-145.18;100.00;46722.91;6152799;23;20008;-71
2023/01/05 09:36:13;;;;;;;54.87;7.73;;;;;;;-145.18;100.00;46722.91;6152846;23;20093;-71
2023/01/05 09:38:39;;;;;;;49.03;7.73;;;;;;;-145.18;100.00;46722.91;6152858;23;20402;-71
2023/01/05 09:41:35;;;;;;;44.97;6.80;;;;;;;-145.18;100.00;46720.94;6152549;23;20005;-71
2023/01/05 09:44:10;;;;;;;43.60;7.22;;;;;;;-145.18;100.00;46720.94;6152181;23;20010;-71
2023/01/05 09:46:40;;;;;;;41.85;6.43;;;;;;;-145.18;100.00;46720.94;6153003;23;20021;-71
2023/01/05 09:49:11;;;;;;;53.17;6.97;;;;;;;-145.18;100.00;46719.00;6152889;23;20009;-71
2023/01/05 09:51:37;;;;;;;51.40;7.13;;;;;;;-145.18;100.00;46715.09;6152756;23;20502;-71
2023/01/05 09:54:02;;;;;;;44.40;7.17;;;;;;;-145.18;100.00;46719.00;6152547;23;20088;-71
2023/01/05 09:56:32;;;;;;;50.70;7.70;;;;;;;-145.18;100.00;46719.00;6152931;23;20016;-71
2023/01/05 09:59:06;;;;;;;59.13;6.70;;;;;;;-145.18;100.00;46717.03;6152526;23;20316;-71
2023/01/05 10:01:33;;;;;;;39.63;7.00;;;;;;;-145.18;100.00;46715.09;6152857;23;20009;-71
2023/01/05 10:04:11;;;;;;;53.63;7.17;;;;;;;-145.18;100.00;46713.13;6151939;23;20443;-71
2023/01/05 10:06:43;;;;;;;46.90;6.87;;;;;;;-145.18;100.00;46713.13;6153024;23;20033;-71
2023/01/05 10:09:14;;;;;;;64.47;8.73;;;;;;;-145.18;100.00;46717.03;6152363;23;20009;-71
2023/01/05 10:14:45;;;;;;;43.22;6.53;;;;;;;-145.18;100.00;46713.13;6152453;23;20044;-72
2023/01/05 10:17:18;;;;;;;45.50;7.45;;;;;;;-145.18;100.00;46707.28;6152373;23;20057;-71
2023/01/05 10:19:45;;;;;;;48.27;6.77;;;;;;;-145.18;100.00;46705.31;6152198;23;20006;-71
2023/01/05 10:22:22;;;;;;;55.83;8.47;;;;;;;-145.18;100.00;46709.22;6152588;23;20427;-71
2023/01/05 10:24:54;;;;;;;42.07;6.97;;;;;;;-145.18;100.00;46709.22;6152484;23;20018;-71
2023/01/05 10:27:45;;;;;;;50.97;7.67;;;;;;;-145.18;100.00;46711.19;6152633;23;20005;-71
2023/01/05 10:30:32;;;;;;;44.40;6.80;;;;;;;-145.18;100.00;46707.28;6152172;23;20100;-72
2023/01/05 10:33:00;;;;;;;49.00;8.27;;;;;;;-145.18;100.00;46711.19;6152310;23;20004;-71
2023/01/05 10:35:31;;;;;;;49.53;6.80;;;;;;;-145.18;100.00;46711.19;6152411;23;20009;-71
2023/01/05 10:38:02;;;;;;;54.87;7.00;;;;;;;-145.18;100.00;46709.22;6152297;23;20005;-71
2023/01/05 10:40:41;;;;;;;49.43;7.23;;;;;;;-145.18;100.00;46707.28;6152505;23;20008;-71
2023/01/05 10:43:12;;;;;;;50.50;8.30;;;;;;;-145.18;100.00;46701.41;6152069;23;20009;-71
2023/01/05 10:45:37;;;;;;;46.90;7.17;;;;;;;-145.18;100.00;46707.28;6152652;23;20271;-71
2023/01/05 10:48:10;;;;;;;46.67;5.97;;;;;;;-145.18;100.00;46705.31;6152120;23;20081;-71
2023/01/05 10:50:38;;;;;;;43.73;6.20;;;;;;;-145.18;100.00;46703.38;6152339;23;20010;-71
2023/01/05 10:53:32;;;;;;;45.10;8.30;;;;;;;-145.18;100.00;46701.41;6152210;23;20080;-71
2023/01/05 10:56:21;;;;;;;39.07;5.67;;;;;;;-145.18;100.00;46705.31;6149216;23;20013;-71
2023/01/05 10:58:47;;;;;;;50.83;5.90;;;;;;;-145.18;100.00;46699.47;6150673;23;20008;-71
2023/01/05 11:01:23;;;;;;;46.90;7.73;;;;;;;-145.18;100.00;46699.47;6152272;23;20005;-71
2023/01/05 11:03:55;;;;;;;54.47;7.33;;;;;;;-145.18;100.00;46699.47;6151879;23;20048;-71
2023/01/05 11:06:32;;;;;;;43.57;6.80;;;;;;;-145.18;100.00;46701.41;6152539;23;20009;-71
2023/01/05 11:09:16;;;;;;;44.37;6.40;;;;;;;-145.18;100.00;46695.56;6152293;23;20024;-72
2023/01/05 11:11:42;;;;;;;49.73;8.07;;;;;;;-145.18;100.00;46695.56;6152432;23;20005;-71
2023/01/05 11:14:15;;;;;;;37.50;6.77;;;;;;;-145.18;100.00;46687.75;6151665;23;20006;-71
2023/01/05 11:16:47;;;;;;;48.03;6.17;;;;;;;-145.18;100.00;46691.66;6152208;23;20419;-71
2023/01/05 11:19:16;;;;;;;48.47;5.97;;;;;;;-145.18;100.00;46685.78;6152028;23;20076;-71
2023/01/05 11:21:46;;;;;;;46.90;6.40;;;;;;;-145.18;100.00;46679.94;6152280;23;20064;-71
2023/01/05 11:24:23;;;;;;;37.93;6.23;;;;;;;-145.18;100.00;46648.69;6151898;23;20006;-71
2023/01/05 11:26:49;;;;;;;53.53;8.20;;;;;;;-145.18;100.00;46621.31;6152118;23;20009;-71
2023/01/05 11:29:16;;;;;;;47.00;7.77;;;;;;;-145.18;100.00;46625.22;6152290;23;20010;-72
2023/01/05 11:31:46;;;;;;;42.67;7.83;;;;;;;-145.18;100.00;46613.50;6152417;23;20317;-71
2023/01/05 11:34:15;;;;;;;40.63;6.00;;;;;;;-145.18;100.00;46609.59;6153746;23;20006;-71
2023/01/05 11:36:42;;;;;;;48.57;8.10;;;;;;;-145.18;100.00;46609.59;6154530;23;20012;-71
2023/01/05 11:39:25;;;;;;;52.37;7.30;;;;;;;-145.18;100.00;46599.84;6153802;23;20006;-71
2023/01/05 11:41:50;;;;;;;43.23;6.70;;;;;;;-145.18;100.00;46593.97;6154135;23;20076;-72
2023/01/05 11:44:21;;;;;;;49.60;7.00;;;;;;;-145.18;100.00;46588.13;6153791;23;20450;-72
2023/01/05 11:46:47;;;;;;;48.33;6.67;;;;;;;-145.18;100.00;46590.06;6154199;23;20009;-71
2023/01/05 11:49:18;;;;;;;45.63;5.67;;;;;;;-145.18;100.00;46592.03;6153609;23;20442;-71